createdAt,value
2022-08-16T00:03:43.974Z,4.80
2022-08-16T00:08:46.420Z,3.47
2022-08-16T00:13:53.658Z,4.47
2022-08-16T00:18:58.437Z,3.85
2022-08-16T00:24:04.606Z,5.07
2022-08-16T00:29:06.710Z,4.97
2022-08-16T00:34:08.624Z,5.88
2022-08-16T00:39:20.390Z,3.92
2022-08-16T00:44:23.164Z,5.78
2022-08-16T00:49:39.443Z,3.47
2022-08-16T00:54:46.492Z,3.50
2022-08-16T00:59:54.819Z,4.28
2022-08-16T01:05:09.427Z,4.78
2022-08-16T01:10:16.139Z,6.70
2022-08-16T01:15:19.017Z,5.03
2022-08-16T01:20:30.514Z,4.07
2022-08-16T01:25:37.262Z,4.40
2022-08-16T01:30:49.709Z,5.35
2022-08-16T01:35:57.687Z,5.30
2022-08-16T01:41:04.793Z,2.92
2022-08-16T01:46:37.791Z,4.22
2022-08-16T01:51:45.663Z,4.15
2022-08-16T01:56:50.781Z,4.72
2022-08-16T02:02:00.062Z,4.32
2022-08-16T02:07:08.812Z,2.60
2022-08-16T02:12:50.044Z,3.65
2022-08-16T02:17:38.668Z,2.40
2022-08-16T02:22:41.933Z,3.22
2022-08-16T02:27:50.733Z,4.32
2022-08-16T02:32:53.684Z,3.65
2022-08-16T02:37:57.276Z,7.93
2022-08-16T02:43:10.815Z,7.18
2022-08-16T02:48:30.661Z,2.88
2022-08-16T02:53:36.056Z,7.60
2022-08-16T02:58:39.059Z,2.35
2022-08-16T03:04:39.926Z,2.42
2022-08-16T03:09:04.896Z,4.68
2022-08-16T03:14:12.081Z,2.53
2022-08-16T03:19:15.314Z,4.68
2022-08-16T03:24:27.586Z,2.60
2022-08-16T03:29:33.834Z,4.15
2022-08-16T03:34:38.089Z,3.50
2022-08-16T03:39:43.017Z,3.13
2022-08-16T03:44:47.510Z,2.95
2022-08-16T03:49:53.546Z,6.45
2022-08-16T03:54:57.966Z,2.28
2022-08-16T04:00:02.034Z,2.45
2022-08-16T04:05:16.337Z,2.42
2022-08-16T04:10:36.816Z,1.88
2022-08-16T04:15:39.709Z,2.35
2022-08-16T04:20:53.117Z,2.97
2022-08-16T04:26:02.121Z,3.13
2022-08-16T04:31:07.353Z,2.65
2022-08-16T04:36:20.154Z,3.67
2022-08-16T04:41:32.479Z,1.88
2022-08-16T04:47:02.324Z,4.25
2022-08-16T04:51:59.608Z,2.65
2022-08-16T04:57:02.175Z,1.88
2022-08-16T05:02:41.709Z,2.72
2022-08-16T05:07:27.501Z,1.95
2022-08-16T05:12:39.521Z,6.85
2022-08-16T05:17:47.257Z,2.50
2022-08-16T05:23:01.085Z,3.88
2022-08-16T05:28:04.288Z,3.67
2022-08-16T05:33:08.868Z,2.05
2022-08-16T05:38:32.600Z,3.08
2022-08-16T05:43:43.416Z,6.57
2022-08-16T05:48:54.957Z,8.48
2022-08-16T05:53:58.123Z,3.42
2022-08-16T05:58:59.975Z,2.58
2022-08-16T06:04:03.449Z,3.08
2022-08-16T06:09:20.320Z,1.70
2022-08-16T06:14:22.141Z,1.48
2022-08-16T06:19:33.911Z,4.70
2022-08-16T06:24:54.217Z,1.33
2022-08-16T06:29:57.790Z,1.25
2022-08-16T06:35:02.648Z,3.15
2022-08-16T06:40:13.034Z,1.90
2022-08-16T06:45:23.972Z,1.77
2022-08-16T06:50:35.437Z,2.63
2022-08-16T06:55:43.131Z,2.40
2022-08-16T07:00:47.948Z,2.58
2022-08-16T07:05:54.605Z,5.70
2022-08-16T07:11:03.491Z,7.00
2022-08-16T07:16:15.409Z,2.22
2022-08-16T07:21:19.388Z,3.92
2022-08-16T07:26:25.880Z,4.70
2022-08-16T07:31:37.797Z,1.92
2022-08-16T07:36:45.236Z,4.93
2022-08-16T07:42:01.739Z,1.50
2022-08-16T07:47:08.641Z,4.72
2022-08-16T07:52:19.019Z,5.25
2022-08-16T07:57:24.870Z,2.70
2022-08-16T08:02:29.156Z,3.58
2022-08-16T08:07:33.343Z,1.85
2022-08-16T08:12:38.879Z,4.85
2022-08-16T08:17:43.969Z,4.93
2022-08-16T08:22:53.648Z,3.97
2022-08-16T08:28:04.108Z,4.28
2022-08-16T08:33:13.676Z,2.90
2022-08-16T08:38:46.022Z,2.38
2022-08-16T08:43:43.074Z,1.88
2022-08-16T08:48:59.720Z,3.60
2022-08-16T08:54:14.206Z,3.17
2022-08-16T08:59:22.294Z,5.55
2022-08-16T09:04:27.789Z,2.17
2022-08-16T09:09:33.438Z,2.17
2022-08-16T09:14:38.678Z,2.13
2022-08-16T09:19:41.321Z,1.70
2022-08-16T09:24:52.859Z,5.03
2022-08-16T09:30:00.114Z,2.88
2022-08-16T09:35:03.691Z,2.67
2022-08-16T09:40:32.222Z,2.55
2022-08-16T09:45:30.079Z,4.15
2022-08-16T09:50:39.146Z,3.17
2022-08-16T09:55:44.424Z,4.22
2022-08-16T10:00:46.766Z,3.40
2022-08-16T10:05:49.518Z,2.45
2022-08-16T10:11:10.393Z,4.53
2022-08-16T10:21:16.599Z,1.58
2022-08-16T10:27:16.550Z,5.05
2022-08-16T10:31:45.404Z,5.00
2022-08-16T10:36:47.793Z,2.97
2022-08-16T10:41:56.017Z,1.95
2022-08-16T10:47:00.759Z,2.38
2022-08-16T10:52:18.921Z,3.70
2022-08-16T10:57:21.250Z,1.23
2022-08-16T11:02:57.694Z,2.28
2022-08-16T11:07:55.088Z,6.22
2022-08-16T11:12:57.340Z,2.15
2022-08-16T11:23:21.529Z,3.55
2022-08-16T11:33:53.559Z,3.83
2022-08-16T11:38:58.925Z,3.92
2022-08-16T11:44:01.108Z,1.25
2022-08-16T11:49:07.605Z,5.30
2022-08-16T11:54:20.992Z,3.58
2022-08-16T11:59:28.453Z,3.10
2022-08-16T12:04:31.716Z,2.63
2022-08-16T12:09:34.045Z,3.53
2022-08-16T12:19:48.749Z,4.40
2022-08-16T12:24:53.354Z,1.83
2022-08-16T12:29:58.623Z,3.25
2022-08-16T12:35:01.726Z,4.05
2022-08-16T12:40:07.300Z,2.80
2022-08-16T12:45:29.689Z,3.40
2022-08-16T12:50:33.329Z,2.00
2022-08-16T12:55:42.000Z,4.07
2022-08-16T13:00:46.733Z,1.33
2022-08-16T13:05:55.335Z,1.77
2022-08-16T13:10:58.186Z,3.75
2022-08-16T13:16:10.767Z,1.80
2022-08-16T13:21:23.325Z,1.98
2022-08-16T13:26:26.693Z,2.05
2022-08-16T13:31:28.494Z,2.30
2022-08-16T13:36:47.858Z,2.75
2022-08-16T13:41:53.735Z,4.40
2022-08-16T13:46:57.369Z,1.60
2022-08-16T13:51:59.349Z,3.88
2022-08-16T13:57:01.830Z,1.67
2022-08-16T14:02:08.620Z,1.00
2022-08-16T14:07:19.932Z,1.75
2022-08-16T14:12:32.761Z,1.30
2022-08-16T14:18:17.488Z,2.05
2022-08-16T14:22:56.934Z,2.55
2022-08-16T14:27:59.222Z,2.03
2022-08-16T14:33:01.702Z,3.30
2022-08-16T14:38:04.695Z,1.75
2022-08-16T14:43:07.523Z,3.45
2022-08-16T14:48:10.253Z,1.83
2022-08-16T14:53:12.718Z,2.45
2022-08-16T14:58:19.548Z,1.65
2022-08-16T15:03:23.230Z,3.00
2022-08-16T15:08:36.224Z,5.53
2022-08-16T15:13:41.022Z,1.58
2022-08-16T15:18:42.642Z,1.27
2022-08-16T15:23:48.474Z,2.17
2022-08-16T15:28:51.230Z,1.83
2022-08-16T15:33:58.023Z,1.48
2022-08-16T15:39:05.904Z,1.67
2022-08-16T15:44:24.932Z,2.60
2022-08-16T15:49:37.086Z,2.28
2022-08-16T15:54:52.639Z,3.92
2022-08-16T16:00:04.816Z,3.55
2022-08-16T16:05:18.886Z,2.05
2022-08-16T16:10:21.542Z,1.48
2022-08-16T16:15:26.419Z,2.63
2022-08-16T16:20:32.425Z,2.35
2022-08-16T16:25:36.884Z,1.00
2022-08-16T16:30:45.338Z,4.13
2022-08-16T16:35:47.976Z,0.85
2022-08-16T16:40:59.699Z,3.28
2022-08-16T16:46:32.814Z,3.72
2022-08-16T16:51:27.963Z,1.27
2022-08-16T16:56:36.910Z,4.30
2022-08-16T17:01:59.111Z,3.33
2022-08-16T17:07:07.725Z,2.92
2022-08-16T17:17:29.556Z,2.97
2022-08-16T17:22:32.865Z,0.95
2022-08-16T17:27:37.335Z,2.47
2022-08-16T17:32:46.944Z,3.08
2022-08-16T17:37:54.317Z,1.65
2022-08-16T17:42:57.057Z,0.98
2022-08-16T17:47:58.965Z,3.63
2022-08-16T17:53:01.290Z,2.58
2022-08-16T17:58:22.228Z,2.25
2022-08-16T18:04:03.183Z,2.15
2022-08-16T18:09:03.739Z,2.70
2022-08-16T18:14:06.302Z,6.28
2022-08-16T18:19:08.958Z,1.77
2022-08-16T18:24:11.840Z,2.75
2022-08-16T18:29:13.819Z,1.48
2022-08-16T18:34:15.457Z,1.95
2022-08-16T18:39:17.088Z,7.18
2022-08-16T18:44:26.272Z,3.88
2022-08-16T18:49:29.698Z,1.65
2022-08-16T18:54:33.172Z,3.22
2022-08-16T18:59:34.836Z,3.70
2022-08-16T19:04:50.378Z,4.55
2022-08-16T19:10:03.651Z,8.15
2022-08-16T19:15:08.490Z,8.90
2022-08-16T19:20:19.527Z,10.93
2022-08-16T19:25:23.309Z,13.98
2022-08-16T19:30:44.947Z,17.23
2022-08-16T19:35:47.579Z,10.30
2022-08-16T19:40:49.271Z,13.60
2022-08-16T19:45:53.425Z,14.32
2022-08-16T19:50:55.217Z,11.82
2022-08-16T19:55:57.404Z,4.72
2022-08-16T20:00:59.097Z,8.32
2022-08-16T20:06:01.382Z,11.77
2022-08-16T20:11:03.215Z,7.80
2022-08-16T20:16:04.890Z,9.63
2022-08-16T20:21:07.368Z,7.80
2022-08-16T20:26:09.086Z,6.07
2022-08-16T20:31:11.744Z,6.85
2022-08-16T20:36:16.134Z,8.32
2022-08-16T20:41:18.839Z,8.07
2022-08-16T20:46:20.545Z,5.95
2022-08-16T20:51:22.242Z,3.50
2022-08-16T20:56:23.848Z,6.82
2022-08-16T21:01:25.590Z,5.60
2022-08-16T21:06:53.953Z,7.30
2022-08-16T21:11:57.582Z,8.50
2022-08-16T21:17:01.392Z,8.93
2022-08-16T21:22:20.854Z,4.85
2022-08-16T21:27:24.232Z,8.52
2022-08-16T21:32:35.330Z,7.65
2022-08-16T21:38:09.725Z,5.00
2022-08-16T21:43:11.017Z,5.18
2022-08-16T21:48:13.323Z,2.40
2022-08-16T21:53:22.964Z,3.10
2022-08-16T21:58:25.729Z,5.53
2022-08-16T22:03:28.219Z,3.85
2022-08-16T22:08:30.849Z,5.18
2022-08-16T22:13:32.557Z,8.98
2022-08-16T22:18:34.413Z,6.05
2022-08-16T22:23:36.419Z,3.22
2022-08-16T22:28:38.056Z,4.68
2022-08-16T22:33:40.518Z,6.60
2022-08-16T22:38:54.611Z,5.18
2022-08-16T22:44:00.853Z,6.18
2022-08-16T22:49:04.186Z,3.80
2022-08-16T22:54:45.909Z,5.57
2022-08-16T22:59:30.350Z,4.80
2022-08-16T23:04:32.455Z,3.40
2022-08-16T23:09:34.510Z,2.50
2022-08-16T23:14:36.185Z,3.33
2022-08-16T23:19:37.806Z,6.97
2022-08-16T23:24:46.680Z,7.38
2022-08-16T23:29:58.510Z,2.60
2022-08-16T23:35:04.291Z,6.38
2022-08-16T23:40:07.839Z,8.73
2022-08-16T23:45:09.723Z,3.50
2022-08-16T23:50:11.940Z,5.15
2022-08-16T23:55:13.785Z,3.83
